sensor_id;sensor_type;location;lat;lon;timestamp;P1;durP1;ratioP1;P2;durP2;ratioP2
79779;SDS011;69258;52.050;10.334;2023-12-20T00:00:44;5.10;;;2.17;;
79779;SDS011;69258;52.050;10.334;2023-12-20T00:15:46;5.47;;;2.10;;
79779;SDS011;69258;52.050;10.334;2023-12-20T00:30:49;4.20;;;2.37;;
79779;SDS011;69258;52.050;10.334;2023-12-20T00:45:51;3.47;;;2.27;;
79779;SDS011;69258;52.050;10.334;2023-12-20T01:00:53;3.00;;;2.00;;
79779;SDS011;69258;52.050;10.334;2023-12-20T01:15:55;3.10;;;1.90;;
79779;SDS011;69258;52.050;10.334;2023-12-20T01:30:58;5.73;;;2.00;;
79779;SDS011;69258;52.050;10.334;2023-12-20T01:46:01;2.67;;;1.93;;
79779;SDS011;69258;52.050;10.334;2023-12-20T02:01:02;3.20;;;1.63;;
79779;SDS011;69258;52.050;10.334;2023-12-20T02:16:05;3.00;;;1.83;;
79779;SDS011;69258;52.050;10.334;2023-12-20T02:31:08;2.30;;;1.50;;
79779;SDS011;69258;52.050;10.334;2023-12-20T02:46:11;2.43;;;1.50;;
79779;SDS011;69258;52.050;10.334;2023-12-20T03:01:13;2.33;;;1.67;;
79779;SDS011;69258;52.050;10.334;2023-12-20T03:16:16;2.10;;;1.60;;
79779;SDS011;69258;52.050;10.334;2023-12-20T03:31:19;3.23;;;1.90;;
79779;SDS011;69258;52.050;10.334;2023-12-20T03:46:21;2.50;;;1.60;;
79779;SDS011;69258;52.050;10.334;2023-12-20T04:01:24;3.73;;;1.47;;
79779;SDS011;69258;52.050;10.334;2023-12-20T04:16:26;3.43;;;1.60;;
79779;SDS011;69258;52.050;10.334;2023-12-20T04:31:28;3.23;;;1.37;;
79779;SDS011;69258;52.050;10.334;2023-12-20T04:46:30;2.80;;;1.50;;
79779;SDS011;69258;52.050;10.334;2023-12-20T05:01:33;3.20;;;1.37;;
79779;SDS011;69258;52.050;10.334;2023-12-20T05:16:35;3.03;;;1.43;;
79779;SDS011;69258;52.050;10.334;2023-12-20T05:31:36;3.17;;;1.60;;
79779;SDS011;69258;52.050;10.334;2023-12-20T05:46:39;3.30;;;1.50;;
79779;SDS011;69258;52.050;10.334;2023-12-20T06:01:41;2.83;;;1.47;;
79779;SDS011;69258;52.050;10.334;2023-12-20T06:16:45;3.90;;;1.43;;
79779;SDS011;69258;52.050;10.334;2023-12-20T06:31:48;2.83;;;1.33;;
79779;SDS011;69258;52.050;10.334;2023-12-20T06:46:50;3.77;;;1.50;;
79779;SDS011;69258;52.050;10.334;2023-12-20T07:01:53;2.77;;;1.30;;
79779;SDS011;69258;52.050;10.334;2023-12-20T07:16:57;3.80;;;1.40;;
79779;SDS011;69258;52.050;10.334;2023-12-20T07:32:00;3.43;;;1.53;;
79779;SDS011;69258;52.050;10.334;2023-12-20T07:47:02;4.13;;;1.60;;
79779;SDS011;69258;52.050;10.334;2023-12-20T08:02:05;5.47;;;1.97;;
79779;SDS011;69258;52.050;10.334;2023-12-20T08:17:08;9.47;;;2.27;;
79779;SDS011;69258;52.050;10.334;2023-12-20T08:32:11;8.57;;;2.30;;
79779;SDS011;69258;52.050;10.334;2023-12-20T08:47:14;16.63;;;4.17;;
79779;SDS011;69258;52.050;10.334;2023-12-20T09:02:17;19.57;;;5.13;;
79779;SDS011;69258;52.050;10.334;2023-12-20T09:17:20;16.83;;;4.90;;
79779;SDS011;69258;52.050;10.334;2023-12-20T09:32:24;17.23;;;5.00;;
79779;SDS011;69258;52.050;10.334;2023-12-20T09:47:27;23.03;;;5.27;;
79779;SDS011;69258;52.050;10.334;2023-12-20T10:02:31;18.67;;;5.20;;
79779;SDS011;69258;52.050;10.334;2023-12-20T10:17:34;14.90;;;4.60;;
79779;SDS011;69258;52.050;10.334;2023-12-20T10:32:37;11.63;;;3.87;;
79779;SDS011;69258;52.050;10.334;2023-12-20T10:47:40;10.00;;;3.23;;
79779;SDS011;69258;52.050;10.334;2023-12-20T11:02:44;8.13;;;2.93;;
79779;SDS011;69258;52.050;10.334;2023-12-20T11:17:54;9.17;;;2.93;;
79779;SDS011;69258;52.050;10.334;2023-12-20T11:32:59;9.07;;;3.20;;
79779;SDS011;69258;52.050;10.334;2023-12-20T11:48:02;6.20;;;2.73;;
79779;SDS011;69258;52.050;10.334;2023-12-20T12:03:05;7.67;;;2.80;;
79779;SDS011;69258;52.050;10.334;2023-12-20T12:18:08;8.10;;;2.70;;
79779;SDS011;69258;52.050;10.334;2023-12-20T12:33:11;7.23;;;2.63;;
79779;SDS011;69258;52.050;10.334;2023-12-20T12:48:14;7.13;;;3.17;;
79779;SDS011;69258;52.050;10.334;2023-12-20T13:03:17;6.83;;;2.80;;
79779;SDS011;69258;52.050;10.334;2023-12-20T13:18:20;10.97;;;3.20;;
79779;SDS011;69258;52.050;10.334;2023-12-20T13:33:23;7.63;;;3.07;;
79779;SDS011;69258;52.050;10.334;2023-12-20T13:48:26;5.93;;;2.60;;
79779;SDS011;69258;52.050;10.334;2023-12-20T14:03:29;5.90;;;2.67;;
79779;SDS011;69258;52.050;10.334;2023-12-20T14:18:31;6.90;;;2.47;;
79779;SDS011;69258;52.050;10.334;2023-12-20T14:33:34;4.07;;;2.30;;
79779;SDS011;69258;52.050;10.334;2023-12-20T14:48:37;6.07;;;2.50;;
79779;SDS011;69258;52.050;10.334;2023-12-20T15:03:43;5.27;;;2.50;;
79779;SDS011;69258;52.050;10.334;2023-12-20T15:18:46;16.47;;;7.43;;
79779;SDS011;69258;52.050;10.334;2023-12-20T15:33:49;11.93;;;6.00;;
79779;SDS011;69258;52.050;10.334;2023-12-20T15:48:52;9.43;;;5.50;;
79779;SDS011;69258;52.050;10.334;2023-12-20T16:03:55;13.17;;;5.70;;
79779;SDS011;69258;52.050;10.334;2023-12-20T16:19:00;11.20;;;5.10;;
79779;SDS011;69258;52.050;10.334;2023-12-20T16:34:04;9.73;;;5.33;;
79779;SDS011;69258;52.050;10.334;2023-12-20T16:49:08;10.43;;;5.80;;
79779;SDS011;69258;52.050;10.334;2023-12-20T17:04:11;12.20;;;5.50;;
79779;SDS011;69258;52.050;10.334;2023-12-20T17:19:14;11.50;;;5.30;;
79779;SDS011;69258;52.050;10.334;2023-12-20T17:34:17;11.43;;;5.23;;
79779;SDS011;69258;52.050;10.334;2023-12-20T17:49:20;11.13;;;4.93;;
79779;SDS011;69258;52.050;10.334;2023-12-20T18:04:25;8.13;;;4.23;;
79779;SDS011;69258;52.050;10.334;2023-12-20T18:19:28;8.27;;;4.30;;
79779;SDS011;69258;52.050;10.334;2023-12-20T18:34:31;7.93;;;4.10;;
79779;SDS011;69258;52.050;10.334;2023-12-20T18:49:35;5.33;;;3.17;;
79779;SDS011;69258;52.050;10.334;2023-12-20T19:04:38;7.37;;;4.03;;
79779;SDS011;69258;52.050;10.334;2023-12-20T19:19:41;5.50;;;3.43;;
79779;SDS011;69258;52.050;10.334;2023-12-20T19:34:44;5.60;;;3.20;;
79779;SDS011;69258;52.050;10.334;2023-12-20T19:49:46;6.67;;;2.90;;
79779;SDS011;69258;52.050;10.334;2023-12-20T20:04:49;5.00;;;2.70;;
79779;SDS011;69258;52.050;10.334;2023-12-20T20:19:53;6.63;;;3.40;;
79779;SDS011;69258;52.050;10.334;2023-12-20T20:34:54;5.97;;;2.90;;
79779;SDS011;69258;52.050;10.334;2023-12-20T20:49:56;4.63;;;2.70;;
79779;SDS011;69258;52.050;10.334;2023-12-20T21:04:59;3.57;;;2.40;;
79779;SDS011;69258;52.050;10.334;2023-12-20T21:20:01;8.03;;;2.93;;
79779;SDS011;69258;52.050;10.334;2023-12-20T21:35:04;6.43;;;2.50;;
79779;SDS011;69258;52.050;10.334;2023-12-20T21:50:06;3.67;;;2.13;;
79779;SDS011;69258;52.050;10.334;2023-12-20T22:05:09;6.33;;;2.53;;
79779;SDS011;69258;52.050;10.334;2023-12-20T22:20:12;4.60;;;2.20;;
79779;SDS011;69258;52.050;10.334;2023-12-20T22:35:15;2.53;;;2.00;;
79779;SDS011;69258;52.050;10.334;2023-12-20T22:50:18;3.37;;;2.20;;
79779;SDS011;69258;52.050;10.334;2023-12-20T23:05:20;5.10;;;2.00;;
79779;SDS011;69258;52.050;10.334;2023-12-20T23:20:23;4.00;;;1.97;;
79779;SDS011;69258;52.050;10.334;2023-12-20T23:35:26;3.03;;;1.80;;
79779;SDS011;69258;52.050;10.334;2023-12-20T23:50:28;2.67;;;1.90;;
